Time;durP1;ratioP1;P1;durP2;ratioP2;P2;SDS_P1;SDS_P2;PMS_P1;PMS_P2;Temp;Humidity;BMP_temperature;BMP_pressure;BME280_temperature;BME280_humidity;BME280_pressure;Samples;Min_cycle;Max_cycle;Signal;HPM_P1;HPM_P2
2021/11/04 00:00:17;;;;;;;56.10;35.20;;;;;;;9.71;55.19;100948.92;117441;1186;22085;-59
2021/11/04 00:02:48;;;;;;;45.10;32.50;;;;;;;9.71;55.22;100951.55;117370;1180;22922;-60
2021/11/04 00:05:17;;;;;;;49.60;34.40;;;;;;;9.72;55.04;100953.12;117420;1182;24146;-61
2021/11/04 00:07:50;;;;;;;53.30;36.50;;;;;;;9.73;55.12;100955.22;117469;1183;21859;-60
2021/11/04 00:10:20;;;;;;;55.00;36.40;;;;;;;9.79;55.10;100953.83;117419;1185;22613;-60
2021/11/04 00:12:48;;;;;;;48.70;33.90;;;;;;;9.87;55.23;100949.80;117424;1183;22616;-61
2021/11/04 00:15:36;;;;;;;48.20;32.80;;;;;;;9.92;55.08;100949.45;117333;1184;24152;-60
2021/11/04 00:18:07;;;;;;;47.30;32.80;;;;;;;9.90;55.16;100963.65;117382;1185;23471;-61
2021/11/04 00:20:35;;;;;;;51.00;35.50;;;;;;;9.89;55.17;100966.98;117430;1182;22620;-60
2021/11/04 00:23:03;;;;;;;57.30;38.20;;;;;;;9.96;55.32;100966.80;117465;1182;21881;-61
2021/11/04 00:25:32;;;;;;;56.80;39.40;;;;;;;10.05;55.39;100957.32;117424;1183;23442;-60
2021/11/04 00:28:00;;;;;;;56.80;39.30;;;;;;;10.17;55.42;100948.36;117368;1183;21860;-61
2021/11/04 00:30:29;;;;;;;57.60;41.10;;;;;;;10.30;55.44;100952.20;117405;1182;23426;-61
2021/11/04 00:32:57;;;;;;;56.70;40.20;;;;;;;10.40;55.49;100958.34;117395;1182;21885;-60
2021/11/04 00:35:25;;;;;;;55.10;38.70;;;;;;;10.48;55.39;100954.47;117510;1185;22825;-60
2021/11/04 00:37:53;;;;;;;62.00;41.90;;;;;;;10.55;55.38;100944.98;117458;1179;21870;-60
2021/11/04 00:40:22;;;;;;;59.40;40.70;;;;;;;10.60;55.30;100944.79;117492;1182;24160;-60
2021/11/04 00:42:50;;;;;;;58.40;40.90;;;;;;;10.66;55.42;100944.94;117359;1182;23440;-60
2021/11/04 00:45:21;;;;;;;61.60;41.10;;;;;;;10.70;55.24;100947.55;117414;1182;22914;-62
2021/11/04 00:47:51;;;;;;;57.40;40.30;;;;;;;10.76;55.28;100947.55;117442;1183;23452;-61
2021/11/04 00:50:22;;;;;;;52.30;38.90;;;;;;;10.81;55.19;100949.11;117464;1184;24156;-60
2021/11/04 00:52:50;;;;;;;55.20;39.80;;;;;;;10.86;55.18;100958.39;117530;1176;21905;-62
2021/11/04 00:55:20;;;;;;;51.50;36.90;;;;;;;10.86;55.24;100954.52;117455;1186;22913;-61
2021/11/04 00:57:49;;;;;;;56.60;37.80;;;;;;;10.87;55.17;100949.08;117504;1182;23303;-61
2021/11/04 01:00:19;;;;;;;49.60;37.00;;;;;;;10.87;55.20;100948.37;117438;1183;21863;-61
2021/11/04 01:02:47;;;;;;;47.90;34.30;;;;;;;10.82;55.21;100950.84;117430;1186;22514;-61
2021/11/04 01:05:16;;;;;;;42.30;33.00;;;;;;;10.78;55.26;100951.41;117471;1180;21851;-61
2021/11/04 01:07:45;;;;;;;46.30;33.30;;;;;;;10.73;55.04;100942.27;117418;1186;21851;-61
2021/11/04 01:10:33;;;;;;;48.10;33.30;;;;;;;10.71;55.07;100942.64;117372;1186;21857;-60
2021/11/04 01:13:01;;;;;;;48.50;35.10;;;;;;;10.70;55.08;100941.94;117406;1185;23466;-60
2021/11/04 01:15:30;;;;;;;48.20;35.10;;;;;;;10.68;55.16;100935.80;117429;1185;24216;-61
2021/11/04 01:17:58;;;;;;;53.60;37.90;;;;;;;10.67;55.29;100927.04;117440;1184;21864;-62
2021/11/04 01:20:26;;;;;;;49.80;34.70;;;;;;;10.68;55.16;100927.21;117497;1184;22913;-62
2021/11/04 01:22:55;;;;;;;50.10;35.30;;;;;;;10.69;55.17;100922.99;117555;1182;23438;-60
2021/11/04 01:25:23;;;;;;;47.60;35.60;;;;;;;10.67;55.14;100918.26;117551;1182;23577;-61
2021/11/04 01:27:51;;;;;;;48.10;34.80;;;;;;;10.67;55.21;100919.48;117481;1182;21855;-61
2021/11/04 01:30:19;;;;;;;46.80;34.90;;;;;;;10.69;55.16;100918.26;117537;1182;23429;-61
2021/11/04 01:32:47;;;;;;;47.40;34.90;;;;;;;10.69;55.19;100917.38;117493;1185;23465;-60
2021/11/04 01:35:16;;;;;;;45.80;34.10;;;;;;;10.70;55.19;100913.87;117467;1183;23461;-61
2021/11/04 01:37:46;;;;;;;49.10;34.90;;;;;;;10.71;55.11;100921.06;117462;1182;23515;-61
2021/11/04 01:40:15;;;;;;;48.50;35.00;;;;;;;10.73;55.18;100931.41;117503;1185;24146;-60
2021/11/04 01:42:43;;;;;;;48.10;35.00;;;;;;;10.74;55.15;100931.93;117522;1182;22846;-60
2021/11/04 01:45:11;;;;;;;44.90;33.20;;;;;;;10.74;55.24;100927.36;117399;1185;22914;-61
2021/11/04 01:47:41;;;;;;;45.20;32.90;;;;;;;10.74;55.15;100925.77;117396;1182;23577;-61
2021/11/04 01:50:09;;;;;;;44.30;33.10;;;;;;;10.75;55.07;100928.94;117357;1183;23459;-61
2021/11/04 01:52:37;;;;;;;45.70;33.60;;;;;;;10.72;55.12;100936.33;117335;1184;22925;-61
2021/11/04 01:55:06;;;;;;;42.60;30.90;;;;;;;10.68;55.23;100941.78;117363;1185;23493;-61
2021/11/04 01:57:34;;;;;;;41.50;32.20;;;;;;;10.68;55.23;100932.99;117574;1183;22627;-62
2021/11/04 02:00:04;;;;;;;41.60;32.40;;;;;;;10.66;55.18;100925.46;117378;1182;21839;-60
2021/11/04 02:02:48;;;;;;;43.90;32.00;;;;;;;10.64;55.10;100932.66;117395;1179;22610;-61
2021/11/04 02:05:18;;;;;;;41.10;30.30;;;;;;;10.63;55.09;100942.84;117500;1182;22802;-61
2021/11/04 02:08:08;;;;;;;41.00;30.40;;;;;;;10.62;55.14;100948.30;117394;1185;23686;-61
2021/11/04 02:10:42;;;;;;;39.50;29.80;;;;;;;10.62;55.13;100956.88;117493;1185;21927;-61
2021/11/04 02:13:59;;;;;;;45.30;32.60;;;;;;;10.62;55.26;100956.53;117438;1186;21860;-62
2021/11/04 02:16:29;;;;;;;39.20;29.20;;;;;;;10.63;55.15;100960.92;117100;1185;22817;-62
2021/11/04 02:19:00;;;;;;;38.60;29.00;;;;;;;10.63;55.31;100961.45;117185;1189;21859;-60
2021/11/04 02:21:38;;;;;;;43.10;30.40;;;;;;;10.63;55.17;100963.56;117185;1185;23641;-61
2021/11/04 02:24:09;;;;;;;41.20;30.60;;;;;;;10.61;55.26;100968.65;117194;1185;22918;-61
2021/11/04 02:26:37;;;;;;;41.70;30.40;;;;;;;10.60;55.19;100977.09;117176;1188;23643;-60
2021/11/04 02:29:05;;;;;;;38.10;29.60;;;;;;;10.61;55.25;100986.73;116984;1188;23531;-62
2021/11/04 02:31:34;;;;;;;43.00;30.00;;;;;;;10.62;55.23;100992.34;117132;1187;21959;-61
2021/11/04 02:34:02;;;;;;;38.70;28.50;;;;;;;10.64;55.31;100999.17;117094;1188;21862;-62
2021/11/04 02:36:31;;;;;;;43.20;30.80;;;;;;;10.64;55.30;100997.41;116981;1184;24169;-61
2021/11/04 02:38:59;;;;;;;37.50;28.20;;;;;;;10.64;55.28;100991.80;117080;1188;23602;-61
2021/11/04 02:41:30;;;;;;;40.00;28.90;;;;;;;10.63;55.37;100990.59;116950;1185;21915;-61
2021/11/04 02:43:59;;;;;;;40.90;30.20;;;;;;;10.64;55.23;100996.54;117097;1185;21858;-60
2021/11/04 02:46:28;;;;;;;44.40;32.20;;;;;;;10.66;55.31;100998.11;117071;1185;21855;-61
2021/11/04 02:48:57;;;;;;;40.70;30.70;;;;;;;10.67;55.37;100996.71;117367;1185;21853;-60
2021/11/04 02:51:25;;;;;;;41.60;30.20;;;;;;;10.71;55.38;101004.95;117388;1182;23449;-61
2021/11/04 02:53:53;;;;;;;46.10;32.50;;;;;;;10.76;55.49;101010.21;117365;1179;21855;-62
2021/11/04 02:56:21;;;;;;;46.70;31.30;;;;;;;10.80;55.40;101016.17;117409;1182;23515;-61
2021/11/04 02:58:49;;;;;;;50.90;32.40;;;;;;;10.84;55.72;101013.34;117411;1186;21863;-61
2021/11/04 03:01:18;;;;;;;42.20;27.10;;;;;;;10.89;55.63;101007.88;117328;1184;23602;-60
2021/11/04 03:03:46;;;;;;;41.10;27.90;;;;;;;10.96;55.45;101008.57;117402;1182;23465;-62
2021/11/04 03:06:15;;;;;;;37.10;26.20;;;;;;;11.02;55.71;101011.35;117380;1183;23442;-61
2021/11/04 03:08:43;;;;;;;33.10;24.60;;;;;;;11.09;55.78;101010.79;117417;1185;21863;-60
2021/11/04 03:11:12;;;;;;;42.00;27.50;;;;;;;11.16;55.84;101011.11;117298;1184;21862;-62
2021/11/04 03:13:40;;;;;;;38.10;26.20;;;;;;;11.24;55.75;101018.98;117334;1185;24166;-61
2021/11/04 03:16:09;;;;;;;37.10;26.00;;;;;;;11.30;55.82;101026.32;117387;1182;23618;-62
2021/11/04 03:18:37;;;;;;;34.60;24.60;;;;;;;11.37;55.79;101029.80;117396;1186;21908;-60
2021/11/04 03:21:06;;;;;;;33.40;22.50;;;;;;;11.44;55.85;101026.45;117407;1180;21852;-61
2021/11/04 03:23:34;;;;;;;33.90;25.20;;;;;;;11.50;55.87;101025.16;117371;1185;23544;-61
2021/11/04 03:26:03;;;;;;;35.30;25.90;;;;;;;11.56;55.81;101015.98;117469;1184;21852;-59
2021/11/04 03:28:33;;;;;;;34.20;25.50;;;;;;;11.61;55.68;101013.52;117428;1186;21892;-61
2021/11/04 03:31:01;;;;;;;40.00;24.10;;;;;;;11.66;55.78;101016.64;117445;1182;23544;-61
2021/11/04 03:33:29;;;;;;;38.60;22.60;;;;;;;11.71;55.82;101021.70;117442;1183;21854;-62
2021/11/04 03:35:58;;;;;;;40.80;24.90;;;;;;;11.78;55.87;101019.02;117436;1182;23481;-64
2021/11/04 03:38:28;;;;;;;37.50;24.60;;;;;;;11.82;55.64;101025.66;117373;1181;21855;-63
2021/11/04 03:40:58;;;;;;;40.70;26.10;;;;;;;11.86;55.79;101033.73;117367;1182;23544;-64
2021/11/04 03:43:26;;;;;;;37.30;25.60;;;;;;;11.91;55.88;101034.77;117438;1185;22932;-59
2021/11/04 03:45:54;;;;;;;37.30;25.00;;;;;;;11.96;55.95;101033.81;117394;1185;22931;-61
2021/11/04 03:48:23;;;;;;;42.90;23.30;;;;;;;12.02;55.76;101029.25;117378;1182;21908;-61
2021/11/04 03:50:51;;;;;;;43.50;26.20;;;;;;;12.07;55.89;101030.78;117279;1182;23442;-61
2021/11/04 03:53:19;;;;;;;44.10;27.50;;;;;;;12.12;55.85;101026.36;117347;1183;21854;-60
2021/11/04 03:55:48;;;;;;;42.60;28.40;;;;;;;12.18;55.94;101034.20;117335;1186;22913;-59
2021/11/04 03:58:16;;;;;;;50.90;30.60;;;;;;;12.24;55.99;101035.58;117371;1185;23625;-61
2021/11/04 04:00:45;;;;;;;50.40;29.70;;;;;;;12.29;56.08;101033.08;117560;1185;21858;-61
2021/11/04 04:03:13;;;;;;;58.30;32.20;;;;;;;12.40;55.91;101033.67;118672;1183;22281;-62
2021/11/04 04:05:41;;;;;;;121.10;35.00;;;;;;;12.50;55.71;101029.00;117272;1185;21845;-60
2021/11/04 04:08:11;;;;;;;59.10;31.10;;;;;;;12.56;55.84;101026.48;117350;1183;23439;-62
2021/11/04 04:10:39;;;;;;;46.20;28.20;;;;;;;12.61;55.88;101020.79;117427;1185;21859;-62
2021/11/04 04:13:08;;;;;;;44.60;30.00;;;;;;;12.64;55.63;101025.50;117325;1176;21857;-60
2021/11/04 04:15:36;;;;;;;49.80;32.30;;;;;;;12.67;55.82;101026.01;117401;1182;23547;-60
2021/11/04 04:18:04;;;;;;;55.20;35.30;;;;;;;12.70;55.63;101022.64;117353;1185;24155;-62
2021/11/04 04:20:33;;;;;;;100.20;43.60;;;;;;;12.74;55.75;101021.19;117311;1185;21857;-63
2021/11/04 04:23:01;;;;;;;104.30;40.20;;;;;;;12.78;55.90;101023.77;117421;1182;22326;-63
2021/11/04 04:25:30;;;;;;;89.10;41.50;;;;;;;12.84;55.74;101027.77;117413;1185;24159;-61
2021/11/04 04:27:59;;;;;;;108.80;40.40;;;;;;;12.89;55.86;101026.30;117444;1182;22625;-60
2021/11/04 04:30:27;;;;;;;118.20;38.50;;;;;;;12.94;55.70;101019.55;117392;1182;22616;-60
2021/11/04 04:32:55;;;;;;;102.60;38.70;;;;;;;12.98;55.80;101022.34;117444;1176;21845;-62
2021/11/04 04:35:24;;;;;;;98.40;40.10;;;;;;;12.97;55.69;101021.98;117419;1185;24163;-64
2021/11/04 04:37:52;;;;;;;76.40;38.50;;;;;;;12.94;56.07;101026.77;117379;1182;21879;-61
2021/11/04 04:40:20;;;;;;;76.30;38.80;;;;;;;12.96;56.10;101031.67;117347;1185;21857;-63
2021/11/04 04:42:48;;;;;;;90.60;38.20;;;;;;;13.01;56.06;101036.04;117362;1184;21855;-61
2021/11/04 04:45:16;;;;;;;78.70;37.70;;;;;;;13.04;55.98;101030.69;117279;1182;22257;-61
2021/11/04 04:47:45;;;;;;;74.70;36.10;;;;;;;13.08;55.98;101029.95;117299;1185;21866;-61
2021/11/04 04:50:13;;;;;;;61.50;36.40;;;;;;;13.11;55.97;101029.03;117357;1183;23449;-62
2021/11/04 04:52:41;;;;;;;64.90;38.30;;;;;;;13.13;55.98;101028.66;117400;1185;22004;-62
2021/11/04 04:55:10;;;;;;;68.80;37.10;;;;;;;13.14;56.02;101037.80;117344;1183;23901;-61
2021/11/04 04:57:38;;;;;;;66.70;41.50;;;;;;;13.13;56.08;101039.23;117313;1184;21856;-62
2021/11/04 05:00:12;;;;;;;73.90;40.60;;;;;;;13.11;56.15;101041.19;117405;1182;23560;-62
2021/11/04 05:02:41;;;;;;;83.40;47.60;;;;;;;13.12;56.20;101046.82;117304;1185;23468;-62
2021/11/04 05:05:10;;;;;;;78.30;47.60;;;;;;;13.14;56.05;101061.41;117498;1184;24233;-63
2021/11/04 05:07:39;;;;;;;95.60;50.00;;;;;;;13.17;55.95;101064.20;117391;1185;21855;-61
2021/11/04 05:10:08;;;;;;;80.20;44.20;;;;;;;13.20;56.05;101064.16;117465;1182;22918;-62
2021/11/04 05:12:37;;;;;;;66.40;42.30;;;;;;;13.21;55.92;101064.85;117478;1185;21864;-64
2021/11/04 05:15:05;;;;;;;77.30;41.70;;;;;;;13.21;55.96;101061.33;117413;1183;21863;-62
2021/11/04 05:17:37;;;;;;;72.80;37.90;;;;;;;13.23;55.93;101068.19;117424;1182;21857;-62
2021/11/04 05:20:07;;;;;;;75.50;40.90;;;;;;;13.27;56.08;101076.59;117294;1184;22964;-62
2021/11/04 05:22:36;;;;;;;65.30;38.50;;;;;;;13.30;55.96;101078.66;117437;1185;21864;-64
2021/11/04 05:25:05;;;;;;;83.80;37.00;;;;;;;13.34;55.96;101080.21;117397;1185;21851;-62
2021/11/04 05:27:34;;;;;;;58.30;37.60;;;;;;;13.35;56.08;101080.02;117345;1185;22644;-64
2021/11/04 05:30:04;;;;;;;61.80;37.70;;;;;;;13.39;55.92;101085.42;117405;1185;21858;-62
2021/11/04 05:32:32;;;;;;;69.10;38.90;;;;;;;13.43;55.94;101091.06;117437;1185;21889;-64
2021/11/04 05:35:00;;;;;;;72.90;38.10;;;;;;;13.46;56.09;101088.73;117317;1185;21858;-64
2021/11/04 05:37:29;;;;;;;64.90;36.70;;;;;;;13.50;55.97;101088.13;117357;1185;23904;-62
2021/11/04 05:39:57;;;;;;;79.90;39.70;;;;;;;13.52;56.06;101083.00;117362;1185;21851;-64
2021/11/04 05:42:25;;;;;;;57.10;36.30;;;;;;;13.55;55.99;101078.73;117333;1185;23465;-64
2021/11/04 05:44:53;;;;;;;62.20;37.20;;;;;;;13.57;56.11;101075.00;117398;1186;24136;-64
2021/11/04 05:47:22;;;;;;;62.90;37.70;;;;;;;13.60;56.11;101075.85;117390;1184;22066;-63
2021/11/04 05:49:50;;;;;;;56.40;35.60;;;;;;;13.62;56.11;101080.41;117245;1185;22650;-65
2021/11/04 05:52:18;;;;;;;56.20;35.90;;;;;;;13.65;56.17;101085.66;117420;1185;23465;-65
2021/11/04 05:54:47;;;;;;;51.50;34.70;;;;;;;13.71;56.23;101089.10;117360;1182;23560;-65
2021/11/04 05:57:15;;;;;;;56.30;36.80;;;;;;;13.79;56.20;101085.63;117412;1185;24159;-65
2021/11/04 05:59:44;;;;;;;55.10;36.90;;;;;;;13.90;56.15;101082.65;117384;1185;23544;-65
2021/11/04 06:02:12;;;;;;;62.40;36.10;;;;;;;13.98;56.16;101085.17;117371;1186;21890;-64
2021/11/04 06:04:45;;;;;;;53.70;36.80;;;;;;;14.04;56.16;101086.67;117326;1183;22621;-63
2021/11/04 06:07:14;;;;;;;54.30;37.40;;;;;;;14.09;56.22;101080.79;117434;1186;22719;-63
2021/11/04 06:09:42;;;;;;;58.70;39.60;;;;;;;14.12;56.17;101071.20;117577;1183;21895;-63
2021/11/04 06:12:11;;;;;;;56.80;38.70;;;;;;;14.19;56.02;101069.48;117530;1176;21851;-63
2021/11/04 06:14:59;;;;;;;71.20;41.10;;;;;;;14.27;56.13;101065.48;117500;1185;21851;-63
2021/11/04 06:17:27;;;;;;;79.50;41.20;;;;;;;14.34;56.18;101078.09;117523;1176;22924;-63
2021/11/04 06:19:55;;;;;;;87.40;41.10;;;;;;;14.41;56.28;101074.78;117482;1186;21855;-62
2021/11/04 06:22:23;;;;;;;67.90;41.30;;;;;;;14.49;56.27;101075.19;117500;1185;21842;-62
2021/11/04 06:24:51;;;;;;;75.70;41.80;;;;;;;14.56;56.07;101078.23;117502;1183;23079;-63
2021/11/04 06:27:19;;;;;;;90.30;45.20;;;;;;;14.63;56.24;101074.05;117530;1184;22005;-63
2021/11/04 06:29:48;;;;;;;70.60;40.40;;;;;;;14.69;56.11;101067.77;117491;1181;21857;-64
2021/11/04 06:32:16;;;;;;;60.80;41.20;;;;;;;14.74;56.23;101065.07;117391;1182;24157;-63
2021/11/04 06:34:45;;;;;;;65.10;42.60;;;;;;;14.81;56.31;101062.79;117363;1182;24152;-61
2021/11/04 06:37:13;;;;;;;61.30;43.40;;;;;;;14.88;56.22;101069.73;117372;1185;22607;-63
2021/11/04 06:39:41;;;;;;;58.80;42.60;;;;;;;14.96;56.30;101075.95;117433;1185;23461;-63
2021/11/04 06:42:10;;;;;;;65.20;45.00;;;;;;;15.05;56.22;101083.19;117399;1184;21839;-63
2021/11/04 06:44:38;;;;;;;68.20;44.00;;;;;;;15.13;56.28;101080.03;117419;1181;21984;-63
2021/11/04 06:47:13;;;;;;;65.80;45.70;;;;;;;15.25;56.46;101076.97;117397;1185;23441;-62
2021/11/04 06:49:42;;;;;;;69.90;46.00;;;;;;;15.38;56.41;101080.75;117411;1183;21857;-63
2021/11/04 06:52:12;;;;;;;68.60;45.80;;;;;;;15.52;56.44;101088.95;117285;1183;21884;-63
2021/11/04 06:54:40;;;;;;;72.90;47.80;;;;;;;15.67;56.43;101088.27;117391;1185;21899;-61
2021/11/04 06:57:15;;;;;;;65.60;45.20;;;;;;;15.78;56.34;101082.38;117407;1179;21855;-62
2021/11/04 06:59:44;;;;;;;71.70;46.60;;;;;;;15.87;56.43;101084.84;117398;1185;22906;-63
2021/11/04 07:02:12;;;;;;;71.60;46.70;;;;;;;15.92;56.31;101087.02;117333;1185;21866;-63
2021/11/04 07:04:42;;;;;;;67.50;46.00;;;;;;;15.96;56.30;101085.34;117362;1185;24126;-63
2021/11/04 07:07:13;;;;;;;71.20;45.80;;;;;;;16.00;56.35;101081.00;117448;1185;21842;-62
2021/11/04 07:09:41;;;;;;;68.30;43.50;;;;;;;16.05;56.35;101075.77;117510;1185;21855;-63
2021/11/04 07:12:29;;;;;;;66.70;42.50;;;;;;;16.12;56.32;101070.65;117504;1185;23615;-62
2021/11/04 07:14:58;;;;;;;65.10;42.10;;;;;;;16.16;56.26;101068.77;117462;1185;24163;-62
2021/11/04 07:17:26;;;;;;;62.80;42.80;;;;;;;16.20;56.23;101071.69;117396;1186;21854;-61
2021/11/04 07:19:55;;;;;;;66.70;42.50;;;;;;;16.27;56.39;101069.20;117397;1185;21854;-61
2021/11/04 07:22:33;;;;;;;61.90;40.70;;;;;;;16.33;56.40;101068.88;117483;1185;23448;-61
2021/11/04 07:25:07;;;;;;;59.70;39.60;;;;;;;16.39;56.40;101070.32;117426;1183;24141;-62
2021/11/04 07:27:59;;;;;;;61.60;40.50;;;;;;;16.44;56.67;101065.59;117600;1186;21895;-61
2021/11/04 07:30:28;;;;;;;55.20;38.50;;;;;;;16.55;56.69;101060.70;117381;1185;23003;-61
2021/11/04 07:33:01;;;;;;;57.80;39.90;;;;;;;16.60;56.56;101054.35;117418;1186;21858;-62
2021/11/04 07:35:38;;;;;;;53.50;36.60;;;;;;;16.65;56.66;101057.44;117437;1183;23633;-61
2021/11/04 07:38:08;;;;;;;50.40;35.70;;;;;;;16.70;56.53;101064.73;117450;1185;21860;-59
2021/11/04 07:40:36;;;;;;;49.30;35.20;;;;;;;16.77;56.54;101057.99;117381;1185;24712;-60
2021/11/04 07:43:04;;;;;;;50.30;34.60;;;;;;;16.81;56.49;101063.89;117431;1185;21847;-60
2021/11/04 07:45:33;;;;;;;43.50;32.70;;;;;;;16.85;56.46;101057.60;117473;1185;23442;-60
2021/11/04 07:48:01;;;;;;;44.60;33.00;;;;;;;16.85;56.54;101054.22;117328;1185;22989;-60
2021/11/04 07:50:30;;;;;;;44.00;32.90;;;;;;;16.89;56.48;101056.07;117403;1182;21912;-61
2021/11/04 07:52:59;;;;;;;43.60;33.30;;;;;;;16.90;56.43;101059.21;117461;1182;21983;-61
2021/11/04 07:55:27;;;;;;;43.10;33.10;;;;;;;16.93;56.48;101056.13;117418;1182;23534;-61
2021/11/04 07:57:56;;;;;;;40.70;31.60;;;;;;;16.94;56.49;101059.13;117487;1184;23442;-61
2021/11/04 08:00:28;;;;;;;124.50;37.60;;;;;;;16.96;56.48;101057.67;117484;1185;21897;-59
2021/11/04 08:02:56;;;;;;;44.80;29.60;;;;;;;17.00;56.51;101062.35;117472;1182;22645;-60
2021/11/04 08:05:24;;;;;;;42.80;30.40;;;;;;;17.01;56.47;101056.98;117494;1184;21858;-61
2021/11/04 08:07:53;;;;;;;38.70;28.70;;;;;;;17.04;56.45;101058.68;117441;1183;23541;-61
2021/11/04 08:10:21;;;;;;;38.20;28.30;;;;;;;17.06;56.40;101051.36;117430;1176;21893;-61
2021/11/04 08:12:49;;;;;;;36.10;27.70;;;;;;;17.08;56.37;101051.83;117547;1183;22645;-59
2021/11/04 08:15:24;;;;;;;35.20;26.90;;;;;;;17.12;56.31;101048.56;117460;1182;23597;-60
2021/11/04 08:18:12;;;;;;;36.20;27.00;;;;;;;17.12;56.36;101051.56;117630;1184;22931;-59
2021/11/04 08:20:41;;;;;;;35.90;26.20;;;;;;;17.12;56.34;101049.79;117471;1184;23472;-59
2021/11/04 08:23:12;;;;;;;33.50;25.20;;;;;;;17.15;56.45;101050.21;117515;1184;21853;-60
2021/11/04 08:25:42;;;;;;;31.20;24.70;;;;;;;17.21;56.46;101046.69;117572;1182;22619;-60
2021/11/04 08:28:10;;;;;;;32.10;24.00;;;;;;;17.26;56.39;101047.95;117406;1182;22918;-61
2021/11/04 08:30:39;;;;;;;29.60;22.00;;;;;;;17.32;56.47;101048.48;117381;1185;24152;-59
2021/11/04 08:33:11;;;;;;;27.90;23.30;;;;;;;17.37;56.49;101044.43;117384;1182;24161;-61
2021/11/04 08:35:40;;;;;;;32.80;23.80;;;;;;;17.42;56.59;101038.98;117421;1183;23466;-59
2021/11/04 08:38:08;;;;;;;28.70;22.70;;;;;;;17.55;56.76;101042.48;117619;1182;23439;-60
2021/11/04 08:40:36;;;;;;;29.60;22.20;;;;;;;17.71;56.70;101044.29;117397;1185;23469;-59
2021/11/04 08:43:04;;;;;;;27.20;21.30;;;;;;;17.80;56.62;101041.87;117367;1185;21855;-59
2021/11/04 08:45:32;;;;;;;25.30;20.50;;;;;;;17.85;56.66;101029.29;117356;1182;21854;-59
2021/11/04 08:48:01;;;;;;;26.00;20.90;;;;;;;17.98;56.60;101025.88;117391;1185;21855;-59
2021/11/04 08:50:29;;;;;;;26.00;20.60;;;;;;;18.17;56.87;101019.04;117348;1182;22902;-59
2021/11/04 08:52:57;;;;;;;25.20;20.50;;;;;;;18.39;56.94;101007.44;117374;1186;23442;-61
2021/11/04 08:55:25;;;;;;;26.90;20.30;;;;;;;18.61;56.74;101003.85;117347;1182;23464;-61
2021/11/04 08:57:54;;;;;;;25.70;20.20;;;;;;;18.77;56.79;101003.65;117602;1185;21855;-59
2021/11/04 09:00:22;;;;;;;23.70;19.00;;;;;;;18.90;56.84;100993.91;117514;1186;21842;-62
2021/11/04 09:02:51;;;;;;;25.00;19.00;;;;;;;19.11;57.07;100992.11;117559;1184;21859;-60
2021/11/04 09:05:19;;;;;;;23.60;18.20;;;;;;;19.28;56.98;100992.84;117539;1182;23553;-59
2021/11/04 09:07:48;;;;;;;22.90;17.30;;;;;;;19.40;56.88;100994.52;117438;1185;22915;-59
2021/11/04 09:10:18;;;;;;;20.00;15.80;;;;;;;19.49;56.89;100997.20;117404;1183;23429;-59
2021/11/04 09:12:47;;;;;;;21.50;16.10;;;;;;;19.56;56.86;100997.45;117416;1184;21845;-59
2021/11/04 09:15:15;;;;;;;20.00;15.30;;;;;;;19.65;56.86;100992.99;117551;1185;21845;-61
2021/11/04 09:17:44;;;;;;;18.70;15.10;;;;;;;19.74;57.05;100998.67;117523;1185;23474;-59
2021/11/04 09:20:15;;;;;;;17.90;15.50;;;;;;;19.80;57.04;100998.80;117482;1185;21981;-60
2021/11/04 09:22:48;;;;;;;20.60;16.70;;;;;;;19.90;56.93;100999.66;117430;1182;21854;-61
2021/11/04 09:25:20;;;;;;;21.00;16.50;;;;;;;20.02;56.93;100997.92;117470;1182;24260;-59
2021/11/04 09:27:49;;;;;;;23.40;16.20;;;;;;;20.13;57.02;100994.45;117580;1182;21845;-61
2021/11/04 09:30:18;;;;;;;18.80;15.00;;;;;;;20.27;57.08;100995.80;117563;1179;24203;-61
2021/11/04 09:32:46;;;;;;;18.10;15.00;;;;;;;20.35;56.95;100997.41;117559;1182;21861;-60
2021/11/04 09:35:15;;;;;;;16.60;14.20;;;;;;;20.36;56.69;100996.68;117405;1185;22104;-59
2021/11/04 09:37:43;;;;;;;17.30;14.10;;;;;;;20.32;56.72;100995.74;117499;1185;21845;-59
2021/11/04 09:40:12;;;;;;;17.20;14.00;;;;;;;20.36;56.77;100994.67;117512;1182;22911;-60
2021/11/04 09:42:41;;;;;;;15.40;13.10;;;;;;;20.41;56.63;101003.06;117547;1185;23564;-60
2021/11/04 09:45:09;;;;;;;17.60;14.60;;;;;;;20.39;56.53;101000.30;117479;1185;21854;-61
2021/11/04 09:47:38;;;;;;;15.90;13.20;;;;;;;20.35;56.42;101002.77;117657;1183;23611;-61
2021/11/04 09:50:12;;;;;;;14.90;12.30;;;;;;;20.24;56.38;101000.73;117463;1182;22834;-59
2021/11/04 09:52:41;;;;;;;17.10;13.70;;;;;;;20.12;56.27;100997.67;117461;1185;21819;-59
2021/11/04 09:55:18;;;;;;;17.40;13.90;;;;;;;20.02;56.24;100988.67;117446;1176;21842;-59
2021/11/04 09:57:48;;;;;;;15.50;12.90;;;;;;;19.95;56.24;100988.80;117446;1186;22246;-61
2021/11/04 10:00:17;;;;;;;15.70;12.30;;;;;;;19.87;56.27;100985.02;117546;1186;21852;-58
2021/11/04 10:02:59;;;;;;;16.80;12.20;;;;;;;19.78;56.13;100986.44;117569;1183;21860;-61
2021/11/04 10:05:28;;;;;;;15.80;13.10;;;;;;;19.66;56.07;100988.86;117486;1185;22829;-59
2021/11/04 10:07:56;;;;;;;15.40;12.80;;;;;;;19.57;56.08;100985.33;117461;1176;23461;-60
2021/11/04 10:10:35;;;;;;;18.70;13.00;;;;;;;19.50;56.17;100978.12;117319;1185;23531;-61
2021/11/04 10:13:06;;;;;;;15.00;13.30;;;;;;;19.46;56.29;100982.19;117539;1183;21867;-61
2021/11/04 10:15:36;;;;;;;16.50;13.20;;;;;;;19.44;56.20;100981.17;117490;1184;21845;-61
2021/11/04 10:18:28;;;;;;;15.60;13.20;;;;;;;19.42;56.34;100981.43;117497;1186;23031;-61
2021/11/04 10:21:02;;;;;;;15.90;14.00;;;;;;;19.41;56.37;100981.34;117478;1185;23446;-59
2021/11/04 10:23:42;;;;;;;15.10;13.40;;;;;;;19.40;56.41;100977.09;117540;1185;21878;-60
2021/11/04 10:26:18;;;;;;;15.50;13.70;;;;;;;19.42;56.52;100973.27;117588;1186;24158;-61
2021/11/04 10:28:51;;;;;;;16.10;13.40;;;;;;;19.46;56.58;100973.46;117430;1183;23287;-61
2021/11/04 10:31:20;;;;;;;16.10;12.60;;;;;;;19.48;56.47;100969.64;117515;1185;21852;-60
2021/11/04 10:33:50;;;;;;;16.90;13.80;;;;;;;19.46;56.24;100970.61;117494;1185;21956;-61
2021/11/04 10:36:22;;;;;;;13.90;12.30;;;;;;;19.40;56.23;100973.37;117535;1182;21846;-61
2021/11/04 10:38:59;;;;;;;17.60;13.00;;;;;;;19.27;56.21;100975.27;117499;1185;21858;-58
2021/11/04 10:41:40;;;;;;;15.00;12.90;;;;;;;19.21;56.23;100977.30;117543;1185;21845;-58
2021/11/04 10:44:21;;;;;;;15.90;13.50;;;;;;;19.23;56.20;100982.58;117552;1182;22179;-62
2021/11/04 10:46:57;;;;;;;18.40;12.80;;;;;;;19.22;56.19;100979.20;117504;1185;21937;-58
2021/11/04 10:49:25;;;;;;;15.90;13.40;;;;;;;19.24;56.29;100976.99;117520;1185;21858;-58
2021/11/04 10:52:07;;;;;;;16.70;13.30;;;;;;;19.23;56.23;100968.88;117536;1184;24157;-58
2021/11/04 10:54:48;;;;;;;19.20;13.70;;;;;;;19.21;56.22;100961.13;117473;1182;22905;-60
2021/11/04 10:57:38;;;;;;;16.20;12.40;;;;;;;19.15;56.23;100959.55;117572;1183;21867;-57
2021/11/04 11:00:16;;;;;;;16.20;12.90;;;;;;;19.12;56.25;100962.34;117349;1184;23243;-61
2021/11/04 11:03:09;;;;;;;18.30;13.60;;;;;;;19.13;56.29;100957.52;117560;1184;22176;-58
2021/11/04 11:05:40;;;;;;;20.80;13.00;;;;;;;19.20;56.42;100949.59;117497;1185;21985;-59
2021/11/04 11:08:12;;;;;;;;;;;;;;;19.28;56.18;100947.69;117386;1185;21826;-58
2021/11/04 11:10:44;;;;;;;17.60;13.30;;;;;;;19.28;56.24;100950.86;117369;1185;22619;-59
2021/11/04 11:13:19;;;;;;;16.60;13.20;;;;;;;19.21;56.20;100952.55;117527;1182;24149;-58
2021/11/04 11:15:54;;;;;;;15.90;12.80;;;;;;;19.16;56.15;100952.41;117535;1185;21855;-58